Time;durP1;ratioP1;P1;durP2;ratioP2;P2;SDS_P1;SDS_P2;PMS_P1;PMS_P2;Temp;Humidity;BMP_temperature;BMP_pressure;BME280_temperature;BME280_humidity;BME280_pressure;Samples;Min_cycle;Max_cycle;Signal;HPM_P1;HPM_P2
2021/12/11 00:00:08;;;;;;;43.73;29.63;;;;;;;4.84;70.46;100068.13;5037860;28;20392;-70
2021/12/11 00:02:34;;;;;;;52.97;30.90;;;;;;;5.14;70.06;100072.19;5034571;28;20404;-69
2021/12/11 00:05:01;;;;;;;48.80;30.57;;;;;;;5.14;69.81;100072.19;5018130;28;20472;-70
2021/12/11 00:07:29;;;;;;;54.20;31.70;;;;;;;5.02;70.70;100077.97;5029073;28;20459;-68
2021/12/11 00:10:15;;;;;;;53.80;30.53;;;;;;;4.88;70.95;100077.66;5042151;28;20454;-70
2021/12/11 00:12:49;;;;;;;56.40;30.53;;;;;;;4.71;71.59;100085.03;5021939;28;20402;-71
2021/12/11 00:15:31;;;;;;;51.67;29.80;;;;;;;5.00;70.64;100087.38;5021921;28;20869;-71
2021/12/11 00:17:59;;;;;;;50.20;30.30;;;;;;;5.16;70.48;100100.63;5021886;28;20417;-69
2021/12/11 00:20:30;;;;;;;56.80;32.83;;;;;;;4.87;70.60;100106.00;5024137;28;20762;-70
2021/12/11 00:22:55;;;;;;;52.23;31.40;;;;;;;4.75;72.08;100098.00;5041242;28;20424;-71
2021/12/11 00:25:21;;;;;;;50.77;30.43;;;;;;;5.10;70.51;100105.66;5041599;28;20420;-70
2021/12/11 00:27:51;;;;;;;50.47;29.40;;;;;;;5.03;70.32;100105.53;5041654;28;20197;-71
2021/12/11 00:30:27;;;;;;;50.93;30.23;;;;;;;5.16;70.54;100113.56;5039234;28;20174;-69
2021/12/11 00:33:05;;;;;;;59.00;31.20;;;;;;;4.86;71.39;100112.91;5021474;28;20429;-69
2021/12/11 00:35:32;;;;;;;50.37;30.60;;;;;;;4.98;70.71;100117.47;5021890;28;20418;-71
2021/12/11 00:38:03;;;;;;;49.50;31.10;;;;;;;4.86;71.04;100119.78;5022142;28;20413;-74
2021/12/11 00:40:29;;;;;;;52.30;31.80;;;;;;;4.81;72.09;100123.97;5023967;28;20524;-71
2021/12/11 00:42:57;;;;;;;50.37;30.60;;;;;;;4.71;71.58;100130.63;5041027;28;20477;-72
2021/12/11 00:45:26;;;;;;;49.03;30.60;;;;;;;4.95;71.36;100139.78;5041861;28;20521;-72
2021/12/11 00:48:00;;;;;;;48.80;28.80;;;;;;;4.81;72.04;100144.63;5041085;28;20854;-72
2021/12/11 00:50:36;;;;;;;51.40;31.73;;;;;;;4.74;72.04;100141.03;5038606;28;20409;-71
2021/12/11 00:53:12;;;;;;;53.50;30.40;;;;;;;4.91;71.09;100146.56;5047885;28;20441;-70
2021/12/11 00:55:45;;;;;;;53.10;31.40;;;;;;;4.80;71.05;100148.91;5020985;28;20459;-71
2021/12/11 00:58:17;;;;;;;58.37;30.30;;;;;;;4.96;71.46;100147.56;5021142;28;20425;-71
2021/12/11 01:00:47;;;;;;;51.63;28.90;;;;;;;4.66;72.68;100156.34;5024386;28;20425;-70
2021/12/11 01:03:17;;;;;;;50.10;29.37;;;;;;;4.71;72.25;100161.63;5040826;28;20411;-71
2021/12/11 01:05:45;;;;;;;51.30;29.20;;;;;;;4.68;72.59;100159.84;5040433;28;20712;-71
2021/12/11 01:08:13;;;;;;;60.67;33.47;;;;;;;4.93;71.81;100164.72;5040709;28;20416;-70
2021/12/11 01:10:39;;;;;;;63.83;33.30;;;;;;;4.98;71.44;100163.97;5025748;28;20835;-71
2021/12/11 01:13:05;;;;;;;53.23;32.23;;;;;;;5.20;71.17;100164.47;5021095;28;20393;-71
2021/12/11 01:16:00;;;;;;;62.37;31.97;;;;;;;4.96;70.71;100168.22;5020715;28;20228;-71
2021/12/11 01:18:37;;;;;;;57.53;33.40;;;;;;;5.07;71.12;100173.63;5021207;28;20468;-70
2021/12/11 01:21:28;;;;;;;58.50;31.17;;;;;;;4.97;71.52;100185.47;5029439;28;20448;-72
2021/12/11 01:24:44;;;;;;;53.33;31.70;;;;;;;5.06;70.72;100190.00;5020723;28;20393;-70
2021/12/11 01:26:49;;;;;;;52.00;30.97;;;;;;;5.09;71.07;100194.34;5016974;28;20485;-71
2021/12/11 01:29:17;;;;;;;55.30;32.97;;;;;;;5.14;70.84;100205.66;5024136;28;20487;-71
2021/12/11 01:31:43;;;;;;;56.43;31.80;;;;;;;4.69;72.12;100208.03;5040246;28;20443;-69
2021/12/11 01:34:10;;;;;;;55.80;31.17;;;;;;;5.06;71.09;100210.66;5040229;28;20814;-70
2021/12/11 01:36:36;;;;;;;53.20;32.17;;;;;;;4.83;71.46;100215.25;5040597;28;20449;-72
2021/12/11 01:39:06;;;;;;;57.50;32.30;;;;;;;5.17;70.57;100213.50;5039890;28;20655;-70
2021/12/11 01:41:35;;;;;;;60.20;32.90;;;;;;;4.85;71.42;100223.94;5040170;28;20700;-70
2021/12/11 01:44:05;;;;;;;61.80;32.77;;;;;;;5.17;71.74;100216.09;5040733;28;20394;-71
2021/12/11 01:46:31;;;;;;;47.23;29.07;;;;;;;5.09;71.87;100233.09;5040198;28;20409;-70
2021/12/11 01:49:01;;;;;;;55.90;31.20;;;;;;;4.96;71.65;100237.97;5039523;28;20690;-73
2021/12/11 01:51:53;;;;;;;50.73;29.50;;;;;;;5.24;71.09;100233.47;5020226;28;20535;-73
2021/12/11 01:54:34;;;;;;;56.67;32.20;;;;;;;4.98;71.48;100241.47;5038583;28;20449;-75
2021/12/11 01:57:04;;;;;;;53.30;31.50;;;;;;;5.26;71.36;100242.13;5040131;28;20448;-73
2021/12/11 01:59:36;;;;;;;59.57;32.20;;;;;;;4.89;71.48;100249.00;5034176;28;20397;-72
2021/12/11 02:02:10;;;;;;;54.50;31.40;;;;;;;4.83;71.71;100243.66;5019970;28;20384;-74
2021/12/11 02:04:40;;;;;;;53.67;31.60;;;;;;;5.20;70.69;100257.50;5053070;28;20414;-73
2021/12/11 02:07:17;;;;;;;53.57;29.60;;;;;;;5.19;71.26;100259.19;5027935;28;20424;-72
2021/12/11 02:09:50;;;;;;;55.10;30.37;;;;;;;5.26;71.50;100261.94;5039018;28;20475;-72
2021/12/11 02:12:19;;;;;;;50.17;28.60;;;;;;;4.89;71.64;100274.81;5039605;28;20416;-71
2021/12/11 02:14:49;;;;;;;51.63;30.03;;;;;;;4.99;71.68;100269.06;5036306;28;20434;-71
2021/12/11 02:17:20;;;;;;;17.83;10.90;;;;;;;13.40;62.86;100241.59;5026534;28;20435;-69
2021/12/11 02:19:47;;;;;;;37.97;24.90;;;;;;;12.99;56.07;100245.44;5040958;28;20435;-75
2021/12/11 02:22:17;;;;;;;41.53;27.23;;;;;;;7.68;61.19;100270.75;5041933;28;20387;-68
2021/12/11 02:24:47;;;;;;;41.03;27.60;;;;;;;6.86;64.04;100275.56;5029687;28;20521;-68
2021/12/11 02:27:21;;;;;;;41.50;27.53;;;;;;;5.76;67.92;100282.00;5020272;28;20392;-69
2021/12/11 02:30:15;;;;;;;46.10;28.40;;;;;;;5.96;67.49;100285.03;5020501;28;20433;-68
2021/12/11 02:32:48;;;;;;;42.57;27.03;;;;;;;5.36;69.77;100290.59;5019365;28;20446;-68
2021/12/11 02:35:38;;;;;;;53.10;29.30;;;;;;;5.26;69.73;100288.63;5032747;28;20468;-68
2021/12/11 02:38:13;;;;;;;47.83;28.50;;;;;;;5.34;69.16;100289.69;5039338;28;20431;-68
2021/12/11 02:41:10;;;;;;;45.77;28.37;;;;;;;4.87;71.27;100297.13;5038435;28;20416;-68
2021/12/11 02:43:40;;;;;;;45.73;28.03;;;;;;;4.97;71.13;100304.31;5027092;28;20461;-68
2021/12/11 02:46:12;;;;;;;46.10;29.20;;;;;;;4.63;71.68;100298.28;5022979;28;20786;-69
2021/12/11 02:48:47;;;;;;;48.03;27.97;;;;;;;4.51;73.13;100310.84;5027392;28;20428;-67
2021/12/11 02:51:21;;;;;;;44.93;27.50;;;;;;;4.67;72.04;100315.59;5038970;28;20490;-69
2021/12/11 02:53:51;;;;;;;50.03;29.67;;;;;;;4.48;72.95;100315.91;5026082;28;20448;-68
2021/12/11 02:56:30;;;;;;;47.87;29.07;;;;;;;4.32;74.07;100310.34;5019053;28;20527;-67
2021/12/11 02:58:57;;;;;;;47.10;28.00;;;;;;;4.17;74.64;100320.22;5019010;28;20393;-67
2021/12/11 03:01:29;;;;;;;52.90;29.50;;;;;;;4.61;73.22;100323.16;5019224;28;20420;-69
2021/12/11 03:04:06;;;;;;;47.40;28.50;;;;;;;4.63;72.74;100321.50;5031790;28;20441;-68
2021/12/11 03:06:39;;;;;;;54.57;30.30;;;;;;;4.79;72.24;100322.78;5038820;28;20416;-68
2021/12/11 03:09:07;;;;;;;49.23;27.77;;;;;;;4.51;72.96;100323.75;5037967;28;20432;-69
2021/12/11 03:11:32;;;;;;;54.13;29.33;;;;;;;4.36;74.27;100337.97;5038913;28;20850;-68
2021/12/11 03:14:00;;;;;;;46.27;27.67;;;;;;;4.65;72.80;100335.31;5029125;28;20480;-68
2021/12/11 03:16:28;;;;;;;50.03;29.00;;;;;;;4.78;71.94;100331.38;5024506;28;20557;-68
2021/12/11 03:18:55;;;;;;;44.13;28.80;;;;;;;5.00;70.65;100321.59;5029700;28;20417;-67
2021/12/11 03:21:20;;;;;;;47.17;27.97;;;;;;;4.96;70.82;100336.13;5028859;28;20479;-68
2021/12/11 03:23:47;;;;;;;40.83;26.57;;;;;;;4.99;71.10;100333.66;5018589;28;20515;-68
2021/12/11 03:26:13;;;;;;;46.63;27.40;;;;;;;4.66;72.30;100342.22;5019997;28;20171;-68
2021/12/11 03:28:38;;;;;;;48.60;28.13;;;;;;;4.77;71.10;100342.53;5018703;28;20396;-68
2021/12/11 03:31:05;;;;;;;37.70;25.60;;;;;;;5.12;70.05;100345.16;5018550;28;20410;-67
2021/12/11 03:33:34;;;;;;;45.40;26.27;;;;;;;5.23;69.89;100350.59;5035516;28;20436;-67
2021/12/11 03:36:00;;;;;;;38.87;25.70;;;;;;;5.12;70.07;100341.72;5037642;28;20434;-68
2021/12/11 03:38:26;;;;;;;43.30;26.50;;;;;;;5.27;69.81;100341.22;5038346;28;20413;-69
2021/12/11 03:40:52;;;;;;;45.70;27.80;;;;;;;5.06;69.98;100348.47;5038842;28;20412;-68
2021/12/11 03:43:22;;;;;;;42.00;27.30;;;;;;;5.15;69.42;100352.09;5022775;28;20408;-68
2021/12/11 03:45:50;;;;;;;38.87;26.77;;;;;;;4.83;71.12;100359.88;5018377;28;20410;-68
2021/12/11 03:48:24;;;;;;;44.73;27.50;;;;;;;4.86;71.22;100360.00;5019540;28;20395;-68
2021/12/11 03:50:50;;;;;;;52.73;28.97;;;;;;;4.75;71.84;100361.38;5018291;28;20384;-67
2021/12/11 03:53:18;;;;;;;48.80;29.07;;;;;;;4.93;71.53;100366.19;5018488;28;20444;-67
2021/12/11 03:55:56;;;;;;;52.40;29.23;;;;;;;4.62;72.45;100368.81;5018181;28;20520;-67
2021/12/11 03:58:21;;;;;;;50.67;30.83;;;;;;;4.44;73.63;100368.28;5018410;28;20400;-68
2021/12/11 04:00:56;;;;;;;49.43;29.33;;;;;;;4.67;72.97;100374.97;5018247;28;20844;-67
2021/12/11 04:03:25;;;;;;;53.37;30.33;;;;;;;4.86;72.74;100384.09;5033225;28;20215;-68
2021/12/11 04:05:52;;;;;;;50.73;30.23;;;;;;;4.77;72.49;100386.41;5037341;28;20470;-68
2021/12/11 04:08:22;;;;;;;52.17;30.93;;;;;;;4.70;72.76;100405.19;5038050;28;20527;-67
2021/12/11 04:10:48;;;;;;;52.47;29.63;;;;;;;4.42;74.32;100419.00;5029676;28;20429;-68
2021/12/11 04:13:14;;;;;;;50.90;31.23;;;;;;;4.65;74.24;100417.94;5018195;28;20414;-67
2021/12/11 04:15:41;;;;;;;48.07;29.60;;;;;;;4.59;73.09;100415.19;5026419;28;20424;-67
2021/12/11 04:18:07;;;;;;;57.67;33.40;;;;;;;4.51;73.99;100420.13;5038373;28;20383;-68
2021/12/11 04:20:36;;;;;;;54.43;29.93;;;;;;;4.54;73.66;100419.34;5032568;28;20441;-67
2021/12/11 04:23:02;;;;;;;46.37;27.70;;;;;;;4.85;72.76;100420.22;5018064;28;20389;-67
2021/12/11 04:25:27;;;;;;;51.47;30.83;;;;;;;4.86;72.48;100424.56;5051342;28;20386;-67
2021/12/11 04:27:54;;;;;;;47.33;28.53;;;;;;;4.73;72.87;100431.06;5018032;28;20413;-68
2021/12/11 04:30:21;;;;;;;49.50;28.80;;;;;;;4.75;73.19;100436.28;5021034;28;20180;-69
2021/12/11 04:32:47;;;;;;;48.67;30.10;;;;;;;4.78;72.82;100441.56;5038104;28;20393;-68
2021/12/11 04:35:14;;;;;;;51.60;30.33;;;;;;;4.48;73.42;100444.97;5037623;28;20817;-68
2021/12/11 04:37:40;;;;;;;47.83;27.70;;;;;;;4.50;73.37;100451.94;5037559;28;20439;-68
2021/12/11 04:40:13;;;;;;;50.97;30.50;;;;;;;4.85;72.28;100452.06;5035968;28;20401;-69
2021/12/11 04:42:53;;;;;;;46.77;29.63;;;;;;;4.78;72.77;100451.88;5017947;28;20730;-68
2021/12/11 04:45:23;;;;;;;51.97;30.23;;;;;;;4.70;72.63;100454.22;5019123;28;20416;-68
2021/12/11 04:47:57;;;;;;;46.63;27.27;;;;;;;4.56;72.86;100466.75;5018768;28;20803;-69
2021/12/11 04:50:46;;;;;;;57.13;30.47;;;;;;;4.45;73.50;100460.38;5019304;28;20409;-68
2021/12/11 05:03:50;;;;;;;50.93;29.00;;;;;;;4.05;75.99;100463.47;5041048;28;20403;-68
2021/12/11 05:12:27;;;;;;;50.30;29.60;;;;;;;4.07;75.49;100470.41;5040967;28;20400;-68
2021/12/11 05:14:53;;;;;;;42.10;26.87;;;;;;;4.11;75.31;100474.81;5024896;28;20415;-69
2021/12/11 05:17:20;;;;;;;46.17;27.60;;;;;;;4.09;74.94;100481.66;5034677;28;20451;-68
2021/12/11 05:19:46;;;;;;;49.87;27.63;;;;;;;3.86;77.36;100499.84;5040906;28;20292;-69
2021/12/11 05:22:12;;;;;;;45.53;26.20;;;;;;;3.66;77.97;100492.28;5041088;28;20421;-69
2021/12/11 05:24:41;;;;;;;47.13;27.30;;;;;;;3.64;79.39;100498.22;5041414;28;20174;-68
2021/12/11 05:27:07;;;;;;;50.23;28.77;;;;;;;4.03;75.38;100502.94;5028676;28;20433;-67
2021/12/11 05:29:33;;;;;;;44.33;26.23;;;;;;;3.68;75.80;100505.22;5020791;28;20544;-69
2021/12/11 05:31:59;;;;;;;44.93;27.50;;;;;;;3.78;76.26;100514.19;5020900;28;20421;-68
2021/12/11 05:34:25;;;;;;;40.30;25.63;;;;;;;3.88;76.31;100517.13;5024590;28;20436;-68
2021/12/11 05:36:50;;;;;;;47.80;28.40;;;;;;;3.92;75.88;100520.66;5019738;28;20887;-68
2021/12/11 05:39:18;;;;;;;40.73;27.73;;;;;;;3.69;76.65;100525.03;5020846;28;20171;-68
2021/12/11 05:41:44;;;;;;;41.27;27.20;;;;;;;3.59;76.52;100523.84;5020358;28;20175;-68
2021/12/11 05:44:10;;;;;;;47.73;26.83;;;;;;;3.32;76.92;100534.06;5020520;28;20441;-68
2021/12/11 05:46:36;;;;;;;43.57;25.90;;;;;;;3.34;77.69;100530.75;5036101;28;20421;-67
2021/12/11 05:49:04;;;;;;;44.80;28.30;;;;;;;3.49;77.85;100534.66;5039342;28;20467;-67
2021/12/11 05:51:37;;;;;;;49.67;27.87;;;;;;;3.49;76.89;100542.38;5040144;28;22155;-68
2021/12/11 05:54:02;;;;;;;40.77;25.47;;;;;;;3.23;78.17;100547.50;5039402;28;20487;-68
2021/12/11 05:56:34;;;;;;;47.27;27.20;;;;;;;3.29;77.74;100542.56;5025495;28;20564;-68
2021/12/11 05:58:59;;;;;;;43.23;25.37;;;;;;;3.28;78.36;100545.97;5020693;28;20213;-68
2021/12/11 06:01:48;;;;;;;45.53;26.37;;;;;;;3.27;78.09;100559.66;5019048;28;20723;-69
2021/12/11 06:04:25;;;;;;;45.80;26.70;;;;;;;3.20;78.05;100562.84;5019771;28;20545;-68
2021/12/11 06:06:52;;;;;;;50.60;27.90;;;;;;;3.41;78.05;100567.00;5036006;28;20467;-68
2021/12/11 06:09:20;;;;;;;52.90;27.10;;;;;;;3.18;78.27;100572.19;5040053;28;21983;-67
2021/12/11 06:11:49;;;;;;;46.13;26.60;;;;;;;3.23;80.21;100569.81;5039738;28;20686;-68
2021/12/11 06:14:17;;;;;;;50.83;27.83;;;;;;;3.25;78.61;100571.63;5039831;28;20524;-68
2021/12/11 06:16:45;;;;;;;44.73;26.97;;;;;;;3.29;77.71;100568.34;5023925;28;20544;-68
2021/12/11 06:19:10;;;;;;;46.23;26.20;;;;;;;3.17;78.04;100580.78;5019951;28;20449;-68
2021/12/11 06:21:36;;;;;;;46.73;27.03;;;;;;;3.19;77.59;100580.00;5051983;28;20453;-68
2021/12/11 06:24:02;;;;;;;44.33;27.43;;;;;;;3.11;78.11;100588.25;5020204;28;20404;-67
2021/12/11 06:26:28;;;;;;;44.90;27.03;;;;;;;3.06;78.12;100585.53;5036452;28;20277;-67
2021/12/11 06:28:53;;;;;;;46.73;26.87;;;;;;;3.07;79.23;100587.25;5038743;28;20803;-68
2021/12/11 06:31:19;;;;;;;51.13;27.77;;;;;;;2.95;78.80;100582.53;5039004;28;20413;-68
2021/12/11 06:33:49;;;;;;;47.73;28.60;;;;;;;2.92;80.47;100600.44;5039152;28;20264;-68
2021/12/11 06:36:16;;;;;;;47.53;27.03;;;;;;;2.87;80.88;100596.81;5023316;28;20214;-67
2021/12/11 06:38:44;;;;;;;42.50;25.70;;;;;;;3.03;79.46;100599.16;5019912;28;20402;-69
2021/12/11 06:41:11;;;;;;;49.77;28.23;;;;;;;2.68;79.57;100598.69;5019573;28;20791;-69
2021/12/11 06:43:37;;;;;;;43.97;28.27;;;;;;;2.67;80.15;100602.06;5019295;28;20433;-68
2021/12/11 06:46:03;;;;;;;44.27;28.13;;;;;;;2.40;80.65;100601.84;5032871;28;20400;-69
2021/12/11 06:48:29;;;;;;;43.70;25.07;;;;;;;2.55;80.78;100624.75;5038250;28;20436;-68
2021/12/11 06:50:56;;;;;;;46.60;26.53;;;;;;;2.69;80.68;100618.47;5038718;28;20468;-69
2021/12/11 06:53:28;;;;;;;42.40;25.23;;;;;;;2.80;78.88;100618.88;5038548;28;20313;-69
2021/12/11 06:55:54;;;;;;;45.50;26.13;;;;;;;2.64;79.92;100626.81;5026657;28;20803;-68
2021/12/11 06:58:19;;;;;;;45.73;26.83;;;;;;;2.74;79.56;100628.91;5019279;28;20444;-68
2021/12/11 07:00:45;;;;;;;43.60;26.00;;;;;;;2.74;79.55;100633.22;5019519;28;20277;-68
2021/12/11 07:03:11;;;;;;;47.77;29.03;;;;;;;2.77;79.28;100634.19;5018936;28;20261;-69
2021/12/11 07:05:37;;;;;;;46.70;27.13;;;;;;;2.84;79.04;100631.06;5021726;28;20516;-68
2021/12/11 07:08:05;;;;;;;45.93;25.93;;;;;;;2.97;79.35;100634.97;5019420;28;20178;-69
2021/12/11 07:10:30;;;;;;;46.60;26.33;;;;;;;2.93;79.38;100635.66;5046558;28;20831;-68
2021/12/11 07:12:56;;;;;;;40.10;24.63;;;;;;;2.80;79.73;100643.72;5031175;28;20451;-67
2021/12/11 07:15:21;;;;;;;46.57;27.37;;;;;;;2.78;79.55;100650.53;5025153;28;20182;-68
2021/12/11 07:17:46;;;;;;;55.57;33.67;;;;;;;3.06;78.97;100656.75;5058585;28;20232;-67
2021/12/11 07:20:13;;;;;;;47.80;25.70;;;;;;;2.78;79.95;100671.13;5059057;28;20308;-68
2021/12/11 07:22:41;;;;;;;48.00;26.90;;;;;;;2.91;79.64;100677.63;5058877;28;20150;-68
2021/12/11 07:25:34;;;;;;;38.90;23.80;;;;;;;2.66;80.75;100672.38;5059281;28;20416;-70
2021/12/11 07:28:03;;;;;;;44.53;25.60;;;;;;;2.74;79.52;100679.53;5058295;28;20408;-68
2021/12/11 07:30:29;;;;;;;43.70;25.37;;;;;;;2.81;78.99;100684.09;5057000;28;20690;-69
2021/12/11 07:32:56;;;;;;;39.23;25.43;;;;;;;2.89;79.18;100689.56;5019429;28;20433;-68
2021/12/11 07:35:22;;;;;;;40.63;25.00;;;;;;;2.96;78.49;100692.44;5019258;28;20435;-68
2021/12/11 07:37:50;;;;;;;38.30;21.70;;;;;;;2.60;79.92;100700.44;5018248;28;20461;-68
2021/12/11 07:40:20;;;;;;;42.50;24.10;;;;;;;2.94;78.74;100699.22;5050564;28;20171;-69
2021/12/11 07:42:46;;;;;;;35.73;23.67;;;;;;;3.13;78.13;100705.13;5019156;28;20410;-68
2021/12/11 07:45:12;;;;;;;37.50;23.70;;;;;;;3.14;77.32;100706.84;5018033;28;20665;-69
2021/12/11 07:47:38;;;;;;;39.67;23.73;;;;;;;3.16;77.98;100712.97;5019259;28;20418;-68
2021/12/11 07:50:04;;;;;;;38.93;23.80;;;;;;;3.09;77.29;100724.72;5019529;28;20422;-69
2021/12/11 07:52:30;;;;;;;35.50;22.87;;;;;;;3.42;77.94;100725.97;5018548;28;20223;-68
2021/12/11 07:54:56;;;;;;;37.90;22.40;;;;;;;2.97;78.34;100734.53;5024595;28;20418;-68
2021/12/11 07:57:21;;;;;;;34.90;22.53;;;;;;;3.52;76.63;100731.53;5033471;28;20658;-69
2021/12/11 07:59:47;;;;;;;37.97;22.63;;;;;;;3.21;77.85;100734.63;5023717;28;20178;-67
2021/12/11 08:02:12;;;;;;;35.07;22.07;;;;;;;3.50;76.92;100733.16;5054799;28;20216;-68
2021/12/11 08:04:37;;;;;;;38.20;22.60;;;;;;;3.75;77.26;100743.53;5038889;28;20189;-68
2021/12/11 08:07:03;;;;;;;33.67;20.83;;;;;;;3.60;76.54;100743.81;5038217;28;20174;-69
2021/12/11 08:09:29;;;;;;;33.53;20.90;;;;;;;3.68;76.47;100757.88;5038277;28;20197;-67
2021/12/11 08:11:55;;;;;;;34.90;23.00;;;;;;;3.55;75.46;100759.13;5042385;28;20669;-69
2021/12/11 08:14:21;;;;;;;40.27;22.57;;;;;;;3.56;75.07;100758.31;5033032;28;20265;-69
2021/12/11 08:16:47;;;;;;;39.10;23.13;;;;;;;3.69;75.46;100763.13;5023754;28;20230;-69
2021/12/11 08:19:16;;;;;;;35.07;22.37;;;;;;;3.50;77.07;100770.97;5053536;28;20394;-68
2021/12/11 08:21:41;;;;;;;34.70;22.00;;;;;;;3.54;76.27;100772.84;5037995;28;20502;-68
2021/12/11 08:24:07;;;;;;;35.00;21.00;;;;;;;3.84;74.99;100764.50;5038068;28;20416;-68
2021/12/11 08:26:34;;;;;;;32.90;21.07;;;;;;;3.45;76.60;100775.03;5026715;28;20167;-68
2021/12/11 08:29:00;;;;;;;33.80;22.40;;;;;;;3.60;75.67;100773.09;5025287;28;20502;-68
2021/12/11 08:31:25;;;;;;;29.30;20.60;;;;;;;3.59;75.09;100783.34;5023934;28;20400;-68
2021/12/11 08:33:53;;;;;;;35.53;21.70;;;;;;;4.12;73.80;100781.00;5022091;28;20167;-67
2021/12/11 08:36:18;;;;;;;32.50;22.13;;;;;;;3.61;75.71;100786.84;5021315;28;20290;-68
2021/12/11 08:38:43;;;;;;;34.97;23.03;;;;;;;3.81;76.30;100790.19;5021805;28;20814;-69
2021/12/11 08:41:11;;;;;;;30.70;21.10;;;;;;;3.93;74.22;100793.22;5021746;28;20403;-69
2021/12/11 08:43:37;;;;;;;35.67;21.57;;;;;;;3.79;74.93;100796.97;5020676;28;20198;-68
2021/12/11 08:46:14;;;;;;;35.00;21.93;;;;;;;3.87;74.41;100793.88;5021460;28;20411;-68
2021/12/11 08:48:43;;;;;;;33.97;22.73;;;;;;;3.62;74.81;100796.34;5021378;28;20167;-67
2021/12/11 08:51:18;;;;;;;33.53;21.00;;;;;;;3.58;76.13;100802.19;5021229;28;20543;-68
2021/12/11 08:53:44;;;;;;;34.23;21.57;;;;;;;3.70;74.97;100810.41;5021144;28;20452;-67
2021/12/11 08:56:10;;;;;;;35.53;22.13;;;;;;;3.66;75.95;100801.66;5021127;28;20869;-67
2021/12/11 08:58:37;;;;;;;34.97;22.40;;;;;;;3.76;75.40;100802.03;5021940;28;20171;-67
2021/12/11 09:01:08;;;;;;;31.83;20.90;;;;;;;3.49;76.39;100806.19;5020550;28;20445;-68
2021/12/11 09:03:40;;;;;;;33.20;23.05;;;;;;;3.58;76.27;100807.34;5021141;28;20411;-66
2021/12/11 09:06:14;;;;;;;34.03;23.17;;;;;;;3.67;75.59;100802.56;5039151;28;20197;-68
2021/12/11 09:08:52;;;;;;;36.00;23.90;;;;;;;3.73;76.04;100807.06;5040749;28;20822;-66
2021/12/11 09:11:36;;;;;;;37.40;23.47;;;;;;;4.08;74.62;100807.53;5040520;28;20789;-67
2021/12/11 09:14:15;;;;;;;35.30;22.73;;;;;;;4.08;75.17;100812.69;5041072;28;20413;-67
2021/12/11 09:16:53;;;;;;;33.87;21.10;;;;;;;3.82;75.75;100828.06;5040968;28;20562;-67
2021/12/11 09:19:31;;;;;;;32.70;20.63;;;;;;;3.85;76.37;100829.03;5041503;28;20436;-66
2021/12/11 09:22:09;;;;;;;35.93;22.07;;;;;;;4.16;74.78;100837.06;5041017;28;20490;-66
2021/12/11 09:24:42;;;;;;;33.13;21.13;;;;;;;4.04;74.66;100840.91;5044081;28;20841;-67
2021/12/11 09:27:31;;;;;;;29.50;20.90;;;;;;;3.48;75.81;100844.78;5042851;28;20405;-66
2021/12/11 09:30:01;;;;;;;33.27;21.13;;;;;;;4.04;75.29;100838.34;5040599;28;20432;-67
2021/12/11 09:32:30;;;;;;;29.67;21.47;;;;;;;4.04;74.91;100842.63;5040453;28;20437;-68
2021/12/11 09:35:11;;;;;;;30.80;21.10;;;;;;;4.16;74.46;100842.22;5040585;28;20429;-71
2021/12/11 09:37:37;;;;;;;31.77;22.10;;;;;;;4.49;73.65;100841.69;5040212;28;20472;-72
2021/12/11 09:40:15;;;;;;;31.00;21.67;;;;;;;4.41;73.30;100851.75;5040155;28;20432;-69
2021/12/11 09:42:40;;;;;;;37.20;19.17;;;;;;;6.20;79.37;100846.41;5040087;28;20455;-62
2021/12/11 09:45:17;;;;;;;28.70;19.33;;;;;;;7.34;68.69;100845.97;5040088;28;20417;-62
2021/12/11 09:47:50;;;;;;;29.07;19.13;;;;;;;10.71;67.26;100834.56;5039175;28;20166;-62
2021/12/11 09:50:21;;;;;;;23.90;18.40;;;;;;;7.78;61.25;100855.63;5039965;28;20409;-67
2021/12/11 09:52:47;;;;;;;27.90;19.30;;;;;;;6.58;65.16;100864.75;5039947;28;20452;-68
2021/12/11 09:55:15;;;;;;;28.80;19.00;;;;;;;5.73;67.29;100878.59;5039973;28;20782;-66
2021/12/11 09:57:46;;;;;;;30.33;20.73;;;;;;;4.94;70.45;100888.06;5040152;28;20297;-67
2021/12/11 10:00:17;;;;;;;28.63;20.47;;;;;;;4.64;72.19;100896.47;5039876;28;20387;-67
2021/12/11 10:02:43;;;;;;;27.53;19.20;;;;;;;4.54;72.11;100895.25;5039278;28;20391;-67
2021/12/11 10:05:35;;;;;;;29.03;20.37;;;;;;;4.71;72.10;100892.41;5039877;28;20441;-67
2021/12/11 10:11:03;;;;;;;25.70;19.60;;;;;;;4.33;73.07;100904.78;5039876;28;20825;-68
2021/12/11 10:13:30;;;;;;;31.10;21.70;;;;;;;4.33;74.00;100890.19;5039731;28;20444;-68
2021/12/11 10:15:56;;;;;;;28.50;21.13;;;;;;;4.51;72.95;100878.78;5039631;28;20427;-69
2021/12/11 10:18:24;;;;;;;29.67;20.23;;;;;;;4.80;72.57;100887.56;5039514;28;20471;-67
2021/12/11 10:20:58;;;;;;;29.73;21.10;;;;;;;4.66;73.22;100891.38;5039853;28;20209;-69
2021/12/11 10:23:26;;;;;;;30.70;21.00;;;;;;;4.60;73.23;100899.78;5039405;28;20795;-71
2021/12/11 10:25:55;;;;;;;29.10;21.37;;;;;;;4.65;73.16;100907.69;5039470;28;20420;-70
2021/12/11 10:28:23;;;;;;;28.87;19.90;;;;;;;4.43;74.00;100900.84;5039264;28;20784;-71
2021/12/11 10:31:03;;;;;;;29.57;22.40;;;;;;;4.70;73.76;100899.25;5039407;28;20802;-70
2021/12/11 10:33:31;;;;;;;30.30;20.70;;;;;;;4.51;73.53;100902.00;5039021;28;20457;-69
2021/12/11 10:35:59;;;;;;;29.30;20.70;;;;;;;4.76;73.40;100901.19;5039215;28;20400;-71
2021/12/11 10:38:25;;;;;;;27.10;19.27;;;;;;;4.87;72.43;100902.47;5038947;28;20508;-69
2021/12/11 10:40:54;;;;;;;30.57;21.10;;;;;;;4.54;73.75;100899.53;5039457;28;20473;-69
2021/12/11 10:43:35;;;;;;;29.47;20.67;;;;;;;4.69;72.95;100902.66;5039133;28;20404;-69
2021/12/11 10:46:03;;;;;;;28.93;21.13;;;;;;;4.78;72.90;100904.72;5039108;28;20778;-71
2021/12/11 10:48:32;;;;;;;28.13;20.00;;;;;;;4.58;73.63;100911.72;5038831;28;20417;-71
2021/12/11 10:51:06;;;;;;;29.70;20.83;;;;;;;4.87;72.39;100909.31;5038348;28;20498;-67
2021/12/11 10:53:32;;;;;;;27.50;19.97;;;;;;;4.88;73.18;100911.97;5038428;28;20427;-70
2021/12/11 10:56:00;;;;;;;27.40;19.20;;;;;;;4.35;74.52;100918.63;5038775;28;20413;-68
2021/12/11 10:58:29;;;;;;;26.80;19.20;;;;;;;4.46;73.89;100921.63;5039619;28;20185;-71
2021/12/11 11:00:56;;;;;;;26.07;19.50;;;;;;;4.83;73.14;100920.38;5040386;28;20409;-67
2021/12/11 11:03:22;;;;;;;27.23;19.60;;;;;;;4.37;73.96;100915.28;5039331;28;20471;-70
2021/12/11 11:05:48;;;;;;;26.03;18.57;;;;;;;4.68;73.15;100919.00;5038918;28;20415;-70
2021/12/11 11:08:13;;;;;;;23.90;18.03;;;;;;;4.76;72.52;100924.44;5039071;28;20697;-69
2021/12/11 11:10:50;;;;;;;24.97;19.50;;;;;;;4.70;73.33;100921.63;5038638;28;20504;-70
2021/12/11 11:13:19;;;;;;;24.93;18.40;;;;;;;4.67;73.41;100926.69;5038368;28;20212;-70
2021/12/11 11:15:44;;;;;;;28.73;19.23;;;;;;;4.89;72.18;100926.63;5038227;28;20421;-67
2021/12/11 11:18:12;;;;;;;25.77;19.83;;;;;;;4.94;72.52;100924.22;5037920;28;20498;-67
2021/12/11 11:20:43;;;;;;;30.63;19.60;;;;;;;5.01;72.43;100933.06;5038761;28;20202;-67
2021/12/11 11:23:09;;;;;;;25.50;18.23;;;;;;;4.75;72.23;100924.38;5039447;28;20417;-70
2021/12/11 11:25:40;;;;;;;25.80;18.80;;;;;;;5.10;71.34;100932.50;5043091;28;20449;-70
2021/12/11 11:28:10;;;;;;;26.27;19.30;;;;;;;5.00;71.47;100939.06;5042397;28;20196;-69
2021/12/11 11:30:39;;;;;;;26.37;18.33;;;;;;;5.14;71.03;100931.78;5041190;28;20467;-68
2021/12/11 11:33:07;;;;;;;24.67;18.60;;;;;;;5.50;70.33;100942.50;5038027;28;20409;-67
2021/12/11 11:35:34;;;;;;;25.23;20.00;;;;;;;5.55;69.99;100940.09;5038416;28;20429;-69
2021/12/11 11:38:01;;;;;;;20.83;17.20;;;;;;;5.66;70.01;100938.72;5038260;28;20472;-69
2021/12/11 11:40:33;;;;;;;25.10;18.57;;;;;;;5.64;69.64;100944.66;5038612;28;20416;-67
2021/12/11 11:42:59;;;;;;;21.97;18.33;;;;;;;5.53;69.64;100945.22;5037761;28;20433;-68
2021/12/11 11:45:26;;;;;;;24.80;18.20;;;;;;;5.76;68.99;100941.63;5038032;28;20503;-68
2021/12/11 11:47:54;;;;;;;28.30;19.10;;;;;;;6.29;67.72;100942.47;5038570;28;20425;-69